Time;durP1;ratioP1;P1;durP2;ratioP2;P2;SDS_P1;SDS_P2;PMS_P1;PMS_P2;Temp;Humidity;BMP_temperature;BMP_pressure;BME280_temperature;BME280_humidity;BME280_pressure;Samples;Min_cycle;Max_cycle;Signal;HPM_P1;HPM_P2
2022/05/07 00:00:29;;;;;;;5.97;3.20;;;;;;;10.26;35.75;100349.19;4795569;29;20489;-75
2022/05/07 00:02:56;;;;;;;6.45;2.60;;;;;;;10.16;36.72;100346.47;4773588;29;20377;-76
2022/05/07 00:05:21;;;;;;;;;;;;;;;10.30;36.29;100353.53;4798442;29;20063;-76
2022/05/07 00:07:47;;;;;;;4.32;2.47;;;;;;;10.21;36.41;100356.00;4789331;29;19929;-77
2022/05/07 00:10:13;;;;;;;;;;;;;;;10.29;35.91;100357.00;4801036;29;20039;-76
2022/05/07 00:12:38;;;;;;;4.90;2.70;;;;;;;10.28;35.62;100357.84;4786358;30;19971;-76
2022/05/07 00:15:04;;;;;;;;;;;;;;;10.41;36.17;100359.69;4801103;29;20038;-77
2022/05/07 00:20:15;;;;;;;9.02;2.92;;;;;;;10.33;36.01;100358.75;4793006;29;20059;-77
2022/05/07 00:22:40;;;;;;;5.72;2.90;;;;;;;10.36;35.57;100358.78;4799093;29;20461;-77
2022/05/07 00:25:06;;;;;;;;;;;;;;;10.43;36.29;100363.16;4791614;29;20043;-76
2022/05/07 00:27:32;;;;;;;5.95;2.85;;;;;;;10.28;36.08;100363.91;4795347;29;20019;-76
2022/05/07 00:29:57;;;;;;;6.32;2.70;;;;;;;10.11;36.05;100355.94;4800338;29;20488;-76
2022/05/07 00:32:23;;;;;;;6.10;2.92;;;;;;;10.15;36.61;100365.47;4795966;29;20042;-76
2022/05/07 00:34:49;;;;;;;5.63;2.78;;;;;;;10.28;36.36;100357.84;4791603;29;20086;-76
2022/05/07 00:37:15;;;;;;;;;;;;;;;10.40;36.29;100363.13;4804285;29;20484;-76
2022/05/07 00:39:41;;;;;;;7.15;3.20;;;;;;;10.32;35.66;100349.25;4798501;29;19929;-76
2022/05/07 00:42:06;;;;;;;6.07;3.13;;;;;;;10.38;35.70;100362.25;4803670;29;20041;-76
2022/05/07 00:44:33;;;;;;;6.93;3.10;;;;;;;10.29;36.01;100360.44;4791002;29;20550;-77
2022/05/07 00:47:06;;;;;;;;;;;;;;;10.34;35.80;100357.88;4802697;29;20089;-76
2022/05/07 00:49:33;;;;;;;7.40;2.85;;;;;;;10.19;36.44;100354.28;4801697;29;19929;-77
2022/05/07 00:51:59;;;;;;;4.32;2.90;;;;;;;10.09;36.35;100354.22;4802679;29;20058;-76
2022/05/07 00:54:25;;;;;;;;;;;;;;;10.23;35.93;100362.97;4804385;29;20100;-76
2022/05/07 00:56:52;;;;;;;8.10;3.08;;;;;;;10.12;36.34;100365.44;4789817;29;19925;-77
2022/05/07 00:59:17;;;;;;;;;;;;;;;10.17;36.10;100358.59;4792645;29;20507;-76
2022/05/07 01:01:43;;;;;;;5.57;2.80;;;;;;;10.04;36.55;100361.94;4805948;29;19921;-77
2022/05/07 01:04:09;;;;;;;;;;;;;;;10.13;36.83;100358.56;4795900;29;20055;-77
2022/05/07 01:06:35;;;;;;;5.82;2.97;;;;;;;10.02;36.71;100348.06;4801604;29;19917;-76
2022/05/07 01:09:04;;;;;;;5.88;3.00;;;;;;;9.84;36.89;100342.72;4789382;29;20385;-76
2022/05/07 01:11:31;;;;;;;7.32;3.00;;;;;;;9.84;37.33;100356.53;4802021;29;20130;-76
2022/05/07 01:13:58;;;;;;;6.85;3.15;;;;;;;9.79;37.09;100349.59;4789372;29;20109;-76
2022/05/07 01:16:27;;;;;;;6.60;3.08;;;;;;;9.69;37.46;100353.81;4801970;29;20039;-76
2022/05/07 01:18:52;;;;;;;;;;;;;;;9.80;37.84;100357.38;4782010;29;20520;-76
2022/05/07 01:21:18;;;;;;;7.65;3.13;;;;;;;9.80;37.22;100351.31;4795563;29;19918;-76
2022/05/07 01:23:47;;;;;;;7.28;2.78;;;;;;;9.79;36.86;100352.19;4792255;29;20427;-76
2022/05/07 01:26:13;;;;;;;6.50;2.80;;;;;;;9.76;37.14;100346.94;4795546;29;20091;-77
2022/05/07 01:28:40;;;;;;;4.72;3.10;;;;;;;9.75;37.33;100346.09;4805302;29;20527;-76
2022/05/07 01:31:08;;;;;;;7.40;2.95;;;;;;;9.71;37.24;100335.69;4797039;29;20407;-76
2022/05/07 01:33:34;;;;;;;;;;;;;;;9.84;37.44;100351.34;4803283;29;20051;-77
2022/05/07 01:36:01;;;;;;;5.75;3.20;;;;;;;9.76;37.34;100342.66;4788917;29;19921;-77
2022/05/07 01:38:29;;;;;;;6.72;2.67;;;;;;;9.68;37.01;100347.75;4796671;29;20422;-77
2022/05/07 01:40:55;;;;;;;6.53;2.63;;;;;;;9.69;37.17;100348.63;4790990;29;20046;-77
2022/05/07 01:43:21;;;;;;;;;;;;;;;9.70;37.41;100347.75;4795239;29;20046;-77
2022/05/07 01:45:46;;;;;;;8.23;3.30;;;;;;;9.57;37.79;100349.34;4796212;29;19986;-77
2022/05/07 01:48:13;;;;;;;5.97;2.90;;;;;;;9.58;37.36;100348.53;4794198;29;20070;-77
2022/05/07 01:50:49;;;;;;;4.63;2.60;;;;;;;9.68;37.28;100347.75;4795591;29;20035;-77
2022/05/07 01:53:22;;;;;;;5.32;2.47;;;;;;;9.64;37.44;100351.16;4801331;29;20465;-78
2022/05/07 01:55:49;;;;;;;5.03;2.47;;;;;;;9.65;37.28;100352.91;4798792;29;20137;-77
2022/05/07 01:58:18;;;;;;;6.15;2.60;;;;;;;9.68;37.18;100345.16;4793668;29;20457;-78
2022/05/07 02:00:44;;;;;;;;;;;;;;;9.85;37.16;100350.53;4797796;29;20054;-76
2022/05/07 02:03:10;;;;;;;4.88;2.40;;;;;;;9.86;37.15;100344.50;4801361;29;19917;-75
2022/05/07 02:05:36;;;;;;;;;;;;;;;9.91;37.11;100354.91;4802461;29;20043;-76
2022/05/07 02:08:02;;;;;;;4.70;2.67;;;;;;;9.77;36.98;100352.16;4799170;29;19917;-77
2022/05/07 02:10:27;;;;;;;;;;;;;;;9.88;37.17;100354.84;4789993;29;20039;-76
2022/05/07 02:12:54;;;;;;;6.10;2.53;;;;;;;9.83;37.14;100349.63;4773489;30;19922;-76
2022/05/07 02:15:22;;;;;;;4.32;2.30;;;;;;;9.92;36.99;100359.22;4800613;29;20039;-77
2022/05/07 02:17:51;;;;;;;6.35;2.92;;;;;;;9.83;37.28;100346.19;4794521;29;20499;-77
2022/05/07 02:20:16;;;;;;;;;;;;;;;9.78;37.16;100353.03;4807806;29;20062;-76
2022/05/07 02:22:44;;;;;;;6.55;2.40;;;;;;;9.55;37.81;100360.56;4805847;29;19921;-77
2022/05/07 02:25:10;;;;;;;5.97;2.63;;;;;;;9.51;38.13;100351.88;4774347;30;20046;-76
2022/05/07 02:27:36;;;;;;;4.82;3.15;;;;;;;9.55;37.82;100356.25;4798522;29;20411;-76
2022/05/07 02:30:03;;;;;;;4.25;2.80;;;;;;;9.55;37.99;100348.47;4792651;29;20047;-78
2022/05/07 02:32:30;;;;;;;6.38;2.88;;;;;;;9.58;37.98;100353.69;4798276;29;20066;-78
2022/05/07 02:34:56;;;;;;;;;;;;;;;9.64;37.93;100365.84;4789133;29;20488;-76
2022/05/07 02:37:34;;;;;;;6.30;2.70;;;;;;;9.57;38.44;100358.84;4785125;29;19921;-78
2022/05/07 02:40:00;;;;;;;8.48;2.80;;;;;;;9.61;37.95;100345.94;4787692;29;20047;-77
2022/05/07 02:42:39;;;;;;;6.53;2.75;;;;;;;9.59;38.17;100351.97;4790188;29;20042;-77
2022/05/07 02:45:18;;;;;;;6.28;3.15;;;;;;;9.60;38.00;100364.06;4775886;30;20515;-76
2022/05/07 02:47:47;;;;;;;6.38;2.95;;;;;;;9.62;38.18;100373.59;4785635;29;20054;-77
2022/05/07 02:50:16;;;;;;;3.78;2.33;;;;;;;9.71;37.66;100356.41;4796224;29;20039;-76
2022/05/07 02:52:42;;;;;;;6.13;2.58;;;;;;;9.75;37.83;100358.19;4777806;29;20055;-77
2022/05/07 02:55:09;;;;;;;4.78;2.80;;;;;;;9.84;37.70;100355.69;4794367;29;20058;-78
2022/05/07 02:57:36;;;;;;;4.50;2.63;;;;;;;9.85;37.50;100353.13;4795648;29;20457;-77
2022/05/07 03:00:03;;;;;;;;;;;;;;;9.97;37.61;100354.09;4786167;29;20039;-76
2022/05/07 03:02:31;;;;;;;9.75;2.97;;;;;;;9.94;37.27;100354.91;4787034;29;19943;-75
2022/05/07 03:04:57;;;;;;;10.25;5.47;;;;;;;9.96;37.42;100354.94;4790951;29;20039;-77
2022/05/07 03:07:23;;;;;;;;;;;;;;;10.01;37.40;100350.66;4798976;29;20095;-76
2022/05/07 03:09:50;;;;;;;8.55;3.42;;;;;;;9.97;37.35;100357.53;4800069;29;19970;-77
2022/05/07 03:12:16;;;;;;;;;;;;;;;10.08;37.13;100355.03;4794957;29;20399;-77
2022/05/07 03:14:44;;;;;;;5.75;2.80;;;;;;;10.08;37.36;100355.94;4793268;29;19921;-77
2022/05/07 03:17:10;;;;;;;;;;;;;;;10.17;37.24;100363.78;4799861;29;20483;-76
2022/05/07 03:19:35;;;;;;;5.82;3.15;;;;;;;10.06;37.30;100355.03;4788519;29;19925;-76
2022/05/07 03:22:01;;;;;;;5.38;3.08;;;;;;;10.01;37.36;100354.13;4800979;29;20043;-77
2022/05/07 03:24:29;;;;;;;6.22;2.80;;;;;;;10.01;37.75;100358.44;4787154;29;20481;-76
2022/05/07 03:26:58;;;;;;;6.95;2.80;;;;;;;9.99;37.96;100358.44;4799081;29;20059;-77
2022/05/07 03:29:24;;;;;;;;;;;;;;;10.20;37.44;100357.75;4799002;29;20411;-76
2022/05/07 03:31:56;;;;;;;5.28;2.58;;;;;;;10.26;37.34;100351.78;4785833;30;20068;-77
2022/05/07 03:34:22;;;;;;;;;;;;;;;10.32;37.30;100360.47;4787127;29;20051;-76
2022/05/07 03:36:49;;;;;;;4.45;2.70;;;;;;;10.22;37.39;100347.38;4799605;29;19924;-78
2022/05/07 03:39:15;;;;;;;7.30;3.50;;;;;;;10.34;36.94;100357.88;4795891;29;20047;-77
2022/05/07 03:41:41;;;;;;;;;;;;;;;10.53;36.86;100362.34;4805162;29;20053;-76
2022/05/07 03:44:09;;;;;;;6.95;2.30;;;;;;;10.58;36.51;100359.78;4803447;29;19963;-76
2022/05/07 03:46:35;;;;;;;4.07;2.40;;;;;;;10.49;36.83;100345.06;4789538;29;20510;-77
2022/05/07 03:49:02;;;;;;;3.97;2.38;;;;;;;10.58;36.84;100357.19;4805505;29;20185;-77
2022/05/07 03:53:29;;;;;;;4.60;2.53;;;;;;;10.59;36.60;100358.97;4805774;29;20488;-77
2022/05/07 03:54:16;;;;;;;6.05;2.90;;;;;;;10.63;36.89;100365.91;4804294;29;20047;-76
2022/05/07 03:56:45;;;;;;;6.65;4.07;;;;;;;10.64;36.98;100352.06;4804832;29;20092;-76
2022/05/07 03:59:12;;;;;;;5.47;2.88;;;;;;;10.71;37.17;100355.56;4804123;29;20069;-77
2022/05/07 04:01:50;;;;;;;5.20;2.75;;;;;;;10.79;36.98;100357.34;4804266;29;20060;-77
2022/05/07 04:04:25;;;;;;;6.95;3.30;;;;;;;10.78;37.06;100360.81;4788974;29;20039;-77
2022/05/07 04:06:51;;;;;;;9.13;2.70;;;;;;;10.88;36.22;100359.13;4786247;29;20055;-78
2022/05/07 04:09:17;;;;;;;6.10;2.92;;;;;;;10.98;36.31;100355.72;4786821;29;20031;-76
2022/05/07 04:11:44;;;;;;;7.78;2.60;;;;;;;11.00;36.78;100354.03;4786142;29;20134;-77
2022/05/07 04:14:10;;;;;;;;;;;;;;;11.06;36.98;100353.19;4797069;29;20068;-77
2022/05/07 04:16:36;;;;;;;7.97;2.70;;;;;;;11.05;37.02;100359.25;4791635;29;19921;-77
2022/05/07 04:19:11;;;;;;;8.82;2.90;;;;;;;11.09;36.50;100354.06;4794700;29;20536;-76
2022/05/07 04:21:38;;;;;;;8.73;2.75;;;;;;;11.17;36.34;100357.53;4786202;29;20073;-77
2022/05/07 04:24:11;;;;;;;4.60;2.38;;;;;;;11.16;35.83;100345.44;4794191;29;20402;-77
2022/05/07 04:26:37;;;;;;;;;;;;;;;11.36;35.35;100350.72;4771921;30;20133;-77
2022/05/07 04:29:04;;;;;;;5.10;2.80;;;;;;;11.33;35.62;100342.03;4786003;29;19950;-76
2022/05/07 04:31:31;;;;;;;5.72;2.70;;;;;;;11.37;36.46;100346.41;4786363;30;20086;-78
2022/05/07 04:34:02;;;;;;;6.38;2.92;;;;;;;11.42;36.45;100348.13;4786304;29;20039;-78
2022/05/07 04:36:32;;;;;;;6.40;3.00;;;;;;;11.48;35.88;100347.28;4786441;30;20050;-76
2022/05/07 04:39:02;;;;;;;5.82;2.92;;;;;;;11.53;36.32;100355.97;4772540;29;20035;-76
2022/05/07 04:41:33;;;;;;;6.65;3.83;;;;;;;11.60;35.91;100342.13;4772089;30;20427;-77
2022/05/07 04:43:58;;;;;;;;;;;;;;;11.76;35.71;100344.75;4787796;29;20066;-77
2022/05/07 04:46:24;;;;;;;7.18;3.90;;;;;;;11.80;35.24;100343.91;4771959;30;20343;-77
2022/05/07 04:49:00;;;;;;;7.80;3.58;;;;;;;11.88;35.72;100344.81;4786808;30;20104;-80
2022/05/07 04:51:28;;;;;;;6.30;3.70;;;;;;;11.92;35.56;100338.75;4786879;29;20142;-77
2022/05/07 04:54:13;;;;;;;4.97;3.17;;;;;;;12.05;35.40;100344.81;4787952;30;20564;-78
2022/05/07 04:56:41;;;;;;;5.20;2.72;;;;;;;12.12;34.86;100337.03;4786769;29;20070;-82
2022/05/07 04:59:07;;;;;;;10.23;3.03;;;;;;;12.21;34.75;100337.03;4757977;30;20044;-76
2022/05/07 05:01:40;;;;;;;5.28;2.72;;;;;;;12.33;34.78;100335.31;4787323;29;20093;-79
2022/05/07 05:04:10;;;;;;;8.00;2.70;;;;;;;12.35;34.11;100317.97;4786131;30;20058;-77
2022/05/07 05:06:37;;;;;;;3.60;2.13;;;;;;;12.49;34.53;100326.59;4786497;29;20150;-77
2022/05/07 05:09:07;;;;;;;5.65;2.63;;;;;;;12.60;33.25;100319.66;4786731;30;20134;-77
2022/05/07 05:11:39;;;;;;;4.70;2.38;;;;;;;12.66;32.88;100317.03;4787091;30;20047;-77
2022/05/07 05:16:55;;;;;;;4.03;2.50;;;;;;;12.89;31.95;100318.72;4762532;30;20069;-76
2022/05/07 05:19:21;;;;;;;;;;;;;;;13.14;32.19;100328.16;4783236;29;20082;-77
2022/05/07 05:21:47;;;;;;;5.65;2.20;;;;;;;13.21;31.64;100324.69;4787093;29;19944;-77
2022/05/07 05:24:18;;;;;;;5.05;2.30;;;;;;;13.30;31.29;100323.81;4792306;29;20035;-76
2022/05/07 05:26:44;;;;;;;;;;;;;;;13.47;31.50;100323.75;4789808;30;20058;-81
2022/05/07 05:29:15;;;;;;;4.75;2.15;;;;;;;13.63;30.41;100324.50;4768314;30;19979;-80
2022/05/07 05:31:42;;;;;;;5.95;2.30;;;;;;;13.63;29.51;100304.50;4775124;29;20042;-78
2022/05/07 05:34:16;;;;;;;6.28;2.40;;;;;;;13.83;29.41;100322.63;4775975;30;20048;-77
2022/05/07 05:36:50;;;;;;;4.90;2.20;;;;;;;13.93;29.41;100315.63;4788894;29;20427;-76
2022/05/07 05:39:18;;;;;;;4.07;2.30;;;;;;;14.04;29.24;100318.13;4780964;29;20578;-78
2022/05/07 05:41:45;;;;;;;3.42;2.17;;;;;;;14.05;29.17;100305.06;4781069;30;20031;-77
2022/05/07 05:44:13;;;;;;;4.18;2.28;;;;;;;14.22;29.72;100311.03;4774298;30;20511;-77
2022/05/07 05:46:38;;;;;;;;;;;;;;;14.30;29.01;100324.00;4767915;30;20100;-78
2022/05/07 05:49:04;;;;;;;3.95;2.17;;;;;;;14.21;28.84;100292.78;4805608;29;20016;-77
2022/05/07 05:51:32;;;;;;;5.03;2.42;;;;;;;14.26;28.98;100296.22;4779358;29;20119;-79
2022/05/07 05:53:58;;;;;;;4.55;2.50;;;;;;;14.27;28.79;100291.84;4778138;29;20039;-76
2022/05/07 05:56:24;;;;;;;;;;;;;;;14.44;29.11;100313.44;4788903;29;20031;-77
2022/05/07 05:58:55;;;;;;;9.45;2.40;;;;;;;14.42;28.80;100323.03;4789811;29;20023;-77
2022/05/07 06:01:27;;;;;;;5.47;2.05;;;;;;;14.39;28.43;100321.31;4792773;29;20047;-78
2022/05/07 06:04:08;;;;;;;6.13;2.78;;;;;;;14.29;28.19;100288.34;4807332;29;20039;-77
2022/05/07 06:06:35;;;;;;;5.38;2.35;;;;;;;14.47;28.38;100314.25;4775158;30;20047;-79
2022/05/07 06:09:01;;;;;;;;;;;;;;;14.60;28.76;100324.63;4780644;29;20127;-77
2022/05/07 06:11:27;;;;;;;4.65;2.20;;;;;;;14.47;28.33;100298.59;4791756;29;19922;-78
2022/05/07 06:13:53;;;;;;;5.95;2.03;;;;;;;14.60;28.91;100320.28;4778011;29;20031;-78
2022/05/07 06:16:19;;;;;;;;;;;;;;;14.71;28.70;100317.56;4781588;29;20035;-77
2022/05/07 06:18:45;;;;;;;4.28;2.38;;;;;;;14.76;28.74;100321.00;4793122;29;19955;-78
2022/05/07 06:21:11;;;;;;;6.78;2.70;;;;;;;14.83;28.22;100316.56;4788139;29;20050;-77
2022/05/07 06:23:41;;;;;;;4.43;2.50;;;;;;;14.81;27.86;100311.34;4783440;29;20046;-78
2022/05/07 06:28:54;;;;;;;4.95;2.30;;;;;;;14.88;28.37;100312.13;4800446;29;20488;-78
2022/05/07 06:31:20;;;;;;;;;;;;;;;14.98;28.21;100316.38;4797808;29;20152;-80
2022/05/07 06:33:46;;;;;;;5.32;2.25;;;;;;;15.02;28.68;100302.38;4793771;29;19944;-75
2022/05/07 06:36:13;;;;;;;4.13;2.38;;;;;;;15.02;27.55;100291.94;4800504;29;20438;-79
2022/05/07 06:38:40;;;;;;;5.15;2.30;;;;;;;15.23;26.86;100312.59;4766537;30;20050;-80
2022/05/07 06:41:10;;;;;;;5.30;2.50;;;;;;;15.33;27.01;100310.72;4775959;30;20130;-76
2022/05/07 06:43:52;;;;;;;6.60;2.40;;;;;;;15.36;27.31;100299.38;4772452;29;20043;-76
2022/05/07 06:46:36;;;;;;;6.88;2.50;;;;;;;15.47;26.63;100300.06;4789754;29;20411;-77
2022/05/07 06:49:04;;;;;;;3.42;2.28;;;;;;;15.57;26.94;100311.25;4761653;29;20047;-77
2022/05/07 06:51:53;;;;;;;5.22;2.30;;;;;;;15.42;27.12;100286.19;4798762;29;20527;-77
2022/05/07 06:54:21;;;;;;;5.00;2.70;;;;;;;15.54;27.14;100306.97;4774309;30;20035;-75
2022/05/07 06:56:47;;;;;;;5.90;2.50;;;;;;;15.51;26.62;100297.41;4768314;29;20035;-77
2022/05/07 06:59:12;;;;;;;8.13;3.00;;;;;;;15.54;27.18;100298.25;4783245;29;20050;-77
2022/05/07 07:01:38;;;;;;;;;;;;;;;15.78;26.99;100317.97;4787859;29;20411;-77
2022/05/07 07:04:04;;;;;;;7.25;2.70;;;;;;;15.84;27.22;100305.66;4810599;29;19932;-83
2022/05/07 07:06:30;;;;;;;4.45;2.25;;;;;;;15.66;27.15;100285.00;4748395;30;20049;-78
2022/05/07 07:08:56;;;;;;;;;;;;;;;15.98;27.47;100310.69;4775003;29;20478;-78
2022/05/07 07:11:22;;;;;;;5.15;2.60;;;;;;;16.10;26.86;100294.78;4776158;30;19917;-78
2022/05/07 07:13:49;;;;;;;6.30;2.75;;;;;;;16.38;26.65;100318.75;4788289;29;20046;-75
2022/05/07 07:16:15;;;;;;;8.20;2.75;;;;;;;16.46;25.87;100316.84;4783978;30;20047;-77
2022/05/07 07:18:41;;;;;;;5.80;2.80;;;;;;;16.47;26.42;100322.97;4798495;29;20038;-75
2022/05/07 07:21:06;;;;;;;4.03;2.53;;;;;;;16.56;26.05;100307.06;4791908;29;20054;-75
2022/05/07 07:23:32;;;;;;;4.45;2.53;;;;;;;16.61;25.97;100309.63;4799638;29;20051;-76
2022/05/07 07:25:58;;;;;;;9.52;2.70;;;;;;;16.74;26.16;100312.00;4799007;29;20175;-75
2022/05/07 07:28:24;;;;;;;6.22;2.55;;;;;;;16.86;26.29;100307.41;4789213;29;20043;-77
2022/05/07 07:30:49;;;;;;;7.70;2.70;;;;;;;17.14;26.03;100313.00;4787454;29;20030;-75
2022/05/07 07:33:15;;;;;;;3.42;2.13;;;;;;;17.17;25.65;100271.81;4791625;29;20047;-76
2022/05/07 07:35:43;;;;;;;4.15;2.42;;;;;;;17.38;25.22;100295.88;4787179;29;20094;-78
2022/05/07 07:38:09;;;;;;;9.93;2.58;;;;;;;17.27;25.34;100273.38;4785671;30;20043;-76
2022/05/07 07:40:35;;;;;;;4.38;2.55;;;;;;;17.48;25.45;100295.63;4787183;29;20031;-75
2022/05/07 07:43:02;;;;;;;4.68;2.38;;;;;;;17.41;25.78;100275.69;4772904;30;20133;-76
2022/05/07 07:48:12;;;;;;;4.60;2.22;;;;;;;17.52;25.52;100285.94;4794464;29;20053;-77
2022/05/07 07:50:38;;;;;;;4.22;2.08;;;;;;;17.55;25.29;100296.38;4799056;29;20031;-77
2022/05/07 07:53:05;;;;;;;4.78;2.63;;;;;;;17.44;25.77;100283.47;4797682;29;20132;-75
2022/05/07 07:55:31;;;;;;;4.38;2.17;;;;;;;17.66;25.65;100293.50;4775497;30;20050;-75
2022/05/07 07:57:59;;;;;;;5.15;2.38;;;;;;;17.67;24.89;100298.69;4800285;29;20043;-75
2022/05/07 08:00:25;;;;;;;5.22;2.50;;;;;;;17.70;25.10;100288.13;4757101;30;20044;-77
2022/05/07 08:02:58;;;;;;;7.40;2.25;;;;;;;17.72;25.79;100288.94;4775034;29;20070;-76
2022/05/07 08:05:26;;;;;;;5.28;2.03;;;;;;;17.72;25.19;100286.31;4787460;29;20059;-74
2022/05/07 08:13:21;;;;;;;3.60;2.28;;;;;;;17.46;25.41;100263.34;4787252;29;20047;-76
2022/05/07 08:15:48;;;;;;;5.57;2.30;;;;;;;17.67;25.16;100280.31;4786512;29;20533;-74
2022/05/07 08:18:14;;;;;;;4.55;2.10;;;;;;;17.88;24.93;100272.88;4799916;29;20141;-74
2022/05/07 08:20:43;;;;;;;6.13;2.20;;;;;;;17.97;24.71;100262.16;4789307;29;20039;-78
2022/05/07 08:23:10;;;;;;;6.07;2.30;;;;;;;18.01;24.15;100233.16;4771352;29;20496;-76
2022/05/07 08:25:36;;;;;;;6.05;2.30;;;;;;;18.46;24.73;100268.75;4791907;29;20047;-76
2022/05/07 08:28:02;;;;;;;4.63;2.45;;;;;;;18.67;24.20;100273.44;4789201;29;20079;-75
2022/05/07 08:30:28;;;;;;;5.78;2.28;;;;;;;18.84;23.68;100264.28;4789003;29;20031;-76
2022/05/07 08:32:53;;;;;;;6.15;2.40;;;;;;;19.07;23.40;100277.63;4791828;29;20479;-75
2022/05/07 08:35:20;;;;;;;3.92;2.13;;;;;;;19.12;22.90;100252.03;4772923;29;20462;-78
2022/05/07 08:37:46;;;;;;;4.60;2.45;;;;;;;19.35;23.19;100261.88;4769477;29;20047;-79
2022/05/07 08:40:16;;;;;;;5.95;2.60;;;;;;;19.40;23.14;100238.03;4760997;29;20031;-76
2022/05/07 08:42:42;;;;;;;4.15;2.70;;;;;;;19.68;22.67;100236.28;4783807;29;20526;-76
2022/05/07 08:45:09;;;;;;;8.18;2.63;;;;;;;19.94;22.69;100234.59;4759182;29;20054;-76
2022/05/07 08:47:35;;;;;;;4.50;2.85;;;;;;;20.32;22.34;100249.06;4795455;29;20044;-75
2022/05/07 08:50:00;;;;;;;6.22;2.28;;;;;;;20.72;22.74;100237.16;4787184;29;20027;-74
2022/05/07 08:52:28;;;;;;;6.65;2.30;;;;;;;21.05;21.92;100237.66;4785782;29;20058;-76
2022/05/07 08:54:54;;;;;;;3.70;2.20;;;;;;;21.36;21.62;100241.78;4764614;29;20403;-74
2022/05/07 08:57:20;;;;;;;6.97;2.50;;;;;;;21.76;21.31;100239.28;4785609;29;20388;-76
2022/05/07 08:59:50;;;;;;;7.68;2.45;;;;;;;22.09;21.06;100241.44;4792342;29;20046;-75
2022/05/07 09:02:16;;;;;;;7.88;2.20;;;;;;;22.30;20.43;100229.97;4790656;29;20092;-75
2022/05/07 09:04:58;;;;;;;4.88;1.95;;;;;;;22.46;20.72;100230.16;4777354;29;20125;-76
2022/05/07 09:07:24;;;;;;;8.38;2.80;;;;;;;22.80;19.60;100232.16;4776588;29;20138;-76
2022/05/07 09:09:51;;;;;;;5.88;2.17;;;;;;;22.65;19.52;100203.75;4774147;29;20399;-79
2022/05/07 09:12:24;;;;;;;3.60;1.75;;;;;;;22.47;19.71;100204.59;4773882;29;20371;-76
2022/05/07 09:14:50;;;;;;;5.78;2.53;;;;;;;22.60;19.88;100212.84;4790511;29;20058;-76
2022/05/07 09:17:19;;;;;;;3.70;2.40;;;;;;;23.02;19.07;100208.25;4794179;29;20497;-81
2022/05/07 09:19:45;;;;;;;5.30;2.30;;;;;;;23.32;18.92;100221.81;4780949;29;20046;-76
2022/05/07 09:22:14;;;;;;;4.65;2.22;;;;;;;23.02;19.07;100204.75;4793197;29;20035;-76
2022/05/07 09:24:40;;;;;;;5.28;2.30;;;;;;;22.74;19.32;100211.28;4776509;29;20411;-77
2022/05/07 09:27:06;;;;;;;4.82;2.28;;;;;;;22.95;19.25;100205.94;4764968;29;20037;-77
2022/05/07 09:29:32;;;;;;;6.60;2.25;;;;;;;22.74;19.47;100215.72;4788967;29;20038;-76
2022/05/07 09:32:09;;;;;;;7.72;2.30;;;;;;;22.42;19.95;100201.28;4774517;29;20050;-76
2022/05/07 09:37:36;;;;;;;6.90;2.05;;;;;;;22.31;20.02;100189.41;4773276;29;20046;-82
2022/05/07 09:40:04;;;;;;;4.22;2.10;;;;;;;22.22;19.67;100189.81;4807403;29;20103;-81
2022/05/07 09:42:29;;;;;;;8.07;2.65;;;;;;;22.02;19.76;100208.25;4775691;30;20043;-79
2022/05/07 09:44:55;;;;;;;3.92;2.15;;;;;;;21.76;19.65;100189.09;4781441;29;20039;-77
2022/05/07 09:47:21;;;;;;;3.33;2.00;;;;;;;22.06;19.62;100188.72;4791135;29;20042;-79
2022/05/07 09:52:32;;;;;;;5.90;2.55;;;;;;;23.65;17.94;100181.41;4796498;29;20136;-78
2022/05/07 09:57:41;;;;;;;4.22;2.28;;;;;;;24.92;16.74;100177.41;4787098;29;20066;-76
2022/05/07 10:00:13;;;;;;;6.82;2.28;;;;;;;25.08;15.99;100174.81;4788030;29;20039;-75
2022/05/07 10:02:58;;;;;;;10.60;2.55;;;;;;;24.90;16.36;100199.69;4788825;29;20051;-77
2022/05/07 10:05:44;;;;;;;13.38;2.67;;;;;;;25.08;16.59;100180.13;4796641;29;20427;-82
2022/05/07 10:08:33;;;;;;;7.97;2.53;;;;;;;25.31;16.16;100163.72;4807494;29;20119;-79
2022/05/07 10:10:59;;;;;;;7.13;2.45;;;;;;;24.93;16.32;100172.97;4805040;29;20037;-79
2022/05/07 10:13:26;;;;;;;5.22;2.08;;;;;;;24.43;17.09;100165.97;4809879;29;20121;-84
2022/05/07 10:16:01;;;;;;;4.13;2.38;;;;;;;24.66;17.10;100165.59;4792558;29;20065;-79
2022/05/07 10:18:35;;;;;;;5.03;2.50;;;;;;;24.96;17.04;100151.56;4808975;29;20049;-78
2022/05/07 10:21:13;;;;;;;5.25;2.30;;;;;;;24.97;16.85;100163.88;4786724;30;20141;-77
2022/05/07 10:23:52;;;;;;;5.47;2.47;;;;;;;24.70;17.06;100164.47;4785455;29;20054;-77
2022/05/07 10:26:19;;;;;;;3.38;2.03;;;;;;;24.67;16.65;100146.06;4784464;29;20415;-76
2022/05/07 10:28:44;;;;;;;5.72;1.92;;;;;;;24.62;16.56;100136.66;4797602;29;20504;-78
2022/05/07 10:31:23;;;;;;;4.50;2.42;;;;;;;24.59;17.16;100140.31;4747941;29;20137;-78
2022/05/07 10:33:50;;;;;;;10.57;2.40;;;;;;;23.74;17.61;100143.88;4791797;29;20046;-79
2022/05/07 10:36:15;;;;;;;6.82;2.30;;;;;;;23.65;17.53;100143.50;4773159;29;20416;-77
2022/05/07 10:38:44;;;;;;;5.30;2.35;;;;;;;23.97;17.22;100140.03;4790942;29;20050;-76
2022/05/07 10:41:12;;;;;;;7.32;2.30;;;;;;;23.75;17.77;100150.03;4775807;29;20031;-78
2022/05/07 10:43:40;;;;;;;3.30;2.17;;;;;;;23.13;18.02;100127.47;4778417;30;20391;-80
2022/05/07 10:46:12;;;;;;;4.78;2.38;;;;;;;22.92;18.29;100122.31;4784803;30;20096;-77
2022/05/07 10:48:48;;;;;;;5.30;2.47;;;;;;;23.05;18.18;100123.44;4781846;29;20047;-80
2022/05/07 10:51:20;;;;;;;4.72;2.25;;;;;;;23.60;18.26;100138.38;4801784;29;20051;-77
2022/05/07 10:53:47;;;;;;;8.02;2.42;;;;;;;24.31;17.30;100117.06;4792830;29;20047;-81
2022/05/07 10:56:16;;;;;;;7.80;2.20;;;;;;;24.61;16.69;100127.84;4787259;29;20065;-77
2022/05/07 10:58:49;;;;;;;11.65;2.47;;;;;;;24.39;17.00;100111.38;4800192;29;20463;-78
2022/05/07 11:01:16;;;;;;;5.68;2.20;;;;;;;24.09;17.13;100119.97;4775877;29;20047;-79
2022/05/07 11:03:42;;;;;;;4.57;2.40;;;;;;;23.48;17.51;100101.91;4785741;30;20171;-78
2022/05/07 11:06:08;;;;;;;8.05;3.30;;;;;;;23.19;17.94;100100.72;4801112;29;20531;-78
2022/05/07 11:08:36;;;;;;;3.90;2.78;;;;;;;23.57;17.73;100093.50;4793526;29;20112;-78
2022/05/07 11:11:07;;;;;;;6.38;3.03;;;;;;;23.90;17.77;100112.13;4794268;29;20047;-77
2022/05/07 11:13:49;;;;;;;4.93;2.20;;;;;;;23.40;18.06;100096.16;4792583;29;20125;-78
2022/05/07 11:16:18;;;;;;;4.85;2.67;;;;;;;22.89;18.61;100108.31;4787248;29;20051;-78
2022/05/07 11:18:51;;;;;;;6.30;2.45;;;;;;;22.69;18.98;100093.41;4789349;29;20075;-77
2022/05/07 11:21:18;;;;;;;8.25;2.50;;;;;;;22.97;18.53;100090.34;4790280;29;20039;-78
2022/05/07 11:23:44;;;;;;;6.80;2.42;;;;;;;23.01;18.66;100089.25;4787313;29;20095;-78
2022/05/07 11:26:16;;;;;;;4.82;2.53;;;;;;;22.99;18.92;100085.81;4792209;29;20035;-77
2022/05/07 11:28:43;;;;;;;5.50;2.60;;;;;;;23.42;18.11;100087.22;4791734;29;20049;-78
2022/05/07 11:31:10;;;;;;;6.68;2.53;;;;;;;23.69;17.87;100077.03;4788740;29;20027;-77
2022/05/07 11:33:36;;;;;;;7.88;2.60;;;;;;;23.70;17.93;100057.56;4786265;29;20124;-76
2022/05/07 11:36:07;;;;;;;4.97;2.15;;;;;;;24.35;17.09;100066.44;4778510;29;20034;-78
2022/05/07 11:38:34;;;;;;;3.63;2.00;;;;;;;24.93;16.41;100082.75;4794171;29;20042;-77
2022/05/07 11:41:12;;;;;;;6.57;1.90;;;;;;;25.03;16.64;100047.63;4789821;29;20127;-79
2022/05/07 11:46:23;;;;;;;4.00;2.13;;;;;;;25.56;15.66;100067.53;4786598;29;20104;-78
2022/05/07 11:48:49;;;;;;;4.30;1.92;;;;;;;25.66;15.81;100051.91;4791258;29;20039;-77
2022/05/07 11:51:25;;;;;;;5.45;2.00;;;;;;;25.41;16.21;100067.59;4772113;29;20108;-76
2022/05/07 11:53:51;;;;;;;5.28;1.63;;;;;;;25.44;15.97;100051.50;4804124;29;20480;-78
2022/05/07 11:56:17;;;;;;;5.03;1.85;;;;;;;25.50;16.15;100053.78;4804043;29;20407;-80
2022/05/07 11:58:49;;;;;;;2.70;1.58;;;;;;;25.56;16.26;100053.38;4789310;29;20085;-80
2022/05/07 12:01:28;;;;;;;8.77;2.28;;;;;;;24.95;16.07;100049.00;4796249;29;20065;-78
2022/05/07 12:03:55;;;;;;;3.85;2.10;;;;;;;23.84;16.87;100065.63;4787767;29;20087;-77
2022/05/07 12:06:30;;;;;;;5.18;2.00;;;;;;;22.79;17.79;100062.94;4783381;29;20031;-77